Time;durP1;ratioP1;P1;durP2;ratioP2;P2;SDS_P1;SDS_P2;PMS_P1;PMS_P2;Temp;Humidity;BMP_temperature;BMP_pressure;BME280_temperature;BME280_humidity;BME280_pressure;Samples;Min_cycle;Max_cycle;Signal;HPM_P1;HPM_P2
2021/06/16 00:00:42;;;;;;;53.90;50.90;;;13.50;99.90;;;;;;5036551;28;20112;-62
2021/06/16 00:03:10;;;;;;;52.30;49.50;;;13.60;99.90;;;;;;5036486;28;20088;-62
2021/06/16 00:05:37;;;;;;;50.60;47.90;;;13.70;99.90;;;;;;5036493;28;20033;-62
2021/06/16 00:08:05;;;;;;;51.00;48.30;;;13.70;99.90;;;;;;5036417;28;20025;-62
2021/06/16 00:10:33;;;;;;;52.00;49.25;;;13.90;99.90;;;;;;5051544;28;20025;-63
2021/06/16 00:13:02;;;;;;;49.47;46.78;;;13.90;99.90;;;;;;5036239;28;20548;-63
2021/06/16 00:15:32;;;;;;;48.67;46.03;;;14.20;99.90;;;;;;5036311;28;20029;-62
2021/06/16 00:18:00;;;;;;;45.97;43.58;;;14.30;99.90;;;;;;5051662;28;20474;-62
2021/06/16 00:20:28;;;;;;;44.50;42.28;;;14.20;99.90;;;;;;5036163;28;20033;-63
2021/06/16 00:22:56;;;;;;;42.45;40.33;;;14.30;99.90;;;;;;5036080;28;20021;-65
2021/06/16 00:25:24;;;;;;;41.22;39.17;;;14.50;99.90;;;;;;5036075;28;20030;-62
2021/06/16 00:27:52;;;;;;;39.00;37.10;;;14.50;99.90;;;;;;5035951;28;20501;-63
2021/06/16 00:30:20;;;;;;;39.42;37.40;;;14.70;99.90;;;;;;5035602;28;20065;-64
2021/06/16 00:32:47;;;;;;;37.05;35.17;;;14.90;99.90;;;;;;5067725;28;20032;-66
2021/06/16 00:35:19;;;;;;;38.70;36.85;;;14.90;99.90;;;;;;5035929;28;20127;-64
2021/06/16 00:37:48;;;;;;;40.65;38.85;;;14.80;99.90;;;;;;5035714;28;20021;-63
2021/06/16 00:40:17;;;;;;;40.55;38.60;;;14.80;99.90;;;;;;5035873;28;20029;-62
2021/06/16 00:42:44;;;;;;;38.10;36.05;;;14.80;99.90;;;;;;5035737;28;20017;-62
2021/06/16 00:45:12;;;;;;;38.35;36.55;;;14.90;99.90;;;;;;5035429;28;20022;-61
2021/06/16 00:47:41;;;;;;;39.35;37.35;;;15.00;99.90;;;;;;5067570;28;20021;-62
2021/06/16 00:50:09;;;;;;;37.53;35.83;;;15.10;99.90;;;;;;5035563;28;20450;-63
2021/06/16 00:52:37;;;;;;;37.08;35.40;;;15.00;99.90;;;;;;5035647;28;20025;-61
2021/06/16 00:55:07;;;;;;;37.75;35.97;;;15.00;99.90;;;;;;5050991;28;20037;-62
2021/06/16 00:57:35;;;;;;;39.17;37.33;;;15.30;99.90;;;;;;5035771;28;20062;-62
2021/06/16 01:00:09;;;;;;;35.45;33.65;;;15.40;99.90;;;;;;5035353;28;20505;-61
2021/06/16 01:03:00;;;;;;;33.03;31.42;;;15.40;99.90;;;;;;5035436;28;20022;-61
2021/06/16 01:05:42;;;;;;;32.78;31.25;;;15.50;99.90;;;;;;5034568;28;20036;-62
2021/06/16 01:08:13;;;;;;;34.95;33.38;;;15.70;99.90;;;;;;5035439;28;20553;-62
2021/06/16 01:10:44;;;;;;;34.05;32.53;;;15.90;99.90;;;;;;5035502;28;20386;-62
2021/06/16 01:13:26;;;;;;;30.80;29.40;;;16.00;99.90;;;;;;5035256;28;20028;-62
2021/06/16 01:16:02;;;;;;;29.27;27.98;;;16.00;99.90;;;;;;5035227;28;20017;-62
2021/06/16 01:18:38;;;;;;;32.80;31.27;;;16.00;99.90;;;;;;5035120;28;20017;-63
2021/06/16 01:21:07;;;;;;;30.27;28.88;;;16.30;99.90;;;;;;5035181;28;20017;-63
2021/06/16 01:23:57;;;;;;;27.83;26.52;;;16.30;99.90;;;;;;5034957;28;20018;-62
2021/06/16 01:26:51;;;;;;;27.55;26.10;;;16.40;99.90;;;;;;5035093;28;20021;-62
2021/06/16 01:29:30;;;;;;;25.10;23.92;;;16.60;99.90;;;;;;5033994;28;20052;-62
2021/06/16 01:32:00;;;;;;;23.75;22.58;;;16.60;99.90;;;;;;5034802;28;20037;-62
2021/06/16 01:34:27;;;;;;;23.50;22.20;;;16.50;99.90;;;;;;5033599;28;20084;-63
2021/06/16 01:36:58;;;;;;;23.25;22.02;;;16.60;99.90;;;;;;5034698;28;20021;-61
2021/06/16 01:39:32;;;;;;;23.23;22.23;;;16.80;99.90;;;;;;5034774;28;20368;-62
2021/06/16 01:42:05;;;;;;;22.88;21.75;;;17.00;99.90;;;;;;5034744;28;20074;-62
2021/06/16 01:44:35;;;;;;;22.23;20.85;;;17.20;99.90;;;;;;5034735;28;20025;-62
2021/06/16 01:47:03;;;;;;;20.55;19.55;;;17.10;99.90;;;;;;5034662;28;20047;-62
2021/06/16 01:49:31;;;;;;;19.10;18.30;;;17.20;99.90;;;;;;5034581;28;20032;-61
2021/06/16 01:52:00;;;;;;;19.42;18.45;;;17.20;99.90;;;;;;5034399;28;20029;-61
2021/06/16 01:54:29;;;;;;;19.42;18.42;;;17.30;99.90;;;;;;5034386;28;20025;-62
2021/06/16 01:56:58;;;;;;;18.10;17.20;;;17.50;99.90;;;;;;5034343;28;20021;-61
2021/06/16 01:59:26;;;;;;;16.88;16.05;;;17.50;99.90;;;;;;5034128;28;20398;-62
2021/06/16 02:01:54;;;;;;;17.63;16.73;;;17.50;99.90;;;;;;5034262;28;20112;-62
2021/06/16 02:04:22;;;;;;;17.95;16.92;;;17.60;99.90;;;;;;5034495;28;20105;-62
2021/06/16 02:07:02;;;;;;;18.17;17.17;;;17.60;99.90;;;;;;5034209;28;20028;-62
2021/06/16 02:09:30;;;;;;;16.05;15.35;;;17.70;99.90;;;;;;5034279;28;20092;-62
2021/06/16 02:11:57;;;;;;;16.23;15.52;;;17.80;99.90;;;;;;5034000;28;20548;-62
2021/06/16 02:14:24;;;;;;;16.15;15.30;;;18.00;99.90;;;;;;5033970;28;20446;-62
2021/06/16 02:17:21;;;;;;;14.77;14.02;;;18.10;99.90;;;;;;5033898;28;20017;-62
2021/06/16 02:19:50;;;;;;;14.60;14.00;;;18.10;99.90;;;;;;5035241;28;20033;-62
2021/06/16 02:22:17;;;;;;;14.88;14.18;;;18.20;99.90;;;;;;5049292;28;20036;-62
2021/06/16 02:24:46;;;;;;;13.90;12.70;;;18.30;99.90;;;;;;5033770;28;20037;-62
2021/06/16 02:27:14;;;;;;;12.90;12.30;;;18.20;99.90;;;;;;5033667;28;20074;-62
2021/06/16 02:29:41;;;;;;;11.80;11.35;;;18.20;99.90;;;;;;5033365;28;20044;-62
2021/06/16 02:32:09;;;;;;;11.25;10.60;;;18.30;99.90;;;;;;5033658;28;20028;-62
2021/06/16 02:34:37;;;;;;;9.93;9.43;;;18.40;99.90;;;;;;5033640;28;20018;-63
2021/06/16 02:37:07;;;;;;;10.00;9.50;;;18.40;99.90;;;;;;5033533;28;20466;-63
2021/06/16 02:40:12;;;;;;;10.70;10.10;;;18.50;99.90;;;;;;5033714;28;20026;-65
2021/06/16 02:42:46;;;;;;;10.90;10.40;;;18.50;99.90;;;;;;5011737;28;20034;-65
2021/06/16 02:45:15;;;;;;;11.00;10.40;;;18.40;99.90;;;;;;5030569;28;20037;-63
2021/06/16 02:47:47;;;;;;;9.43;9.02;;;18.40;99.90;;;;;;5033448;28;20021;-64
2021/06/16 02:50:19;;;;;;;11.05;10.45;;;18.40;99.90;;;;;;5033323;28;20072;-63
2021/06/16 02:52:47;;;;;;;10.48;9.98;;;18.30;99.90;;;;;;5048322;28;20029;-62
2021/06/16 02:55:15;;;;;;;10.13;9.63;;;18.10;99.90;;;;;;5033380;28;20028;-64
2021/06/16 02:57:45;;;;;;;10.63;10.02;;;18.00;99.90;;;;;;5033389;28;20083;-62
2021/06/16 03:00:15;;;;;;;10.55;9.95;;;17.90;99.90;;;;;;5033324;28;20486;-64
2021/06/16 03:02:47;;;;;;;9.93;9.43;;;17.90;99.90;;;;;;5033472;28;20033;-61
2021/06/16 03:05:19;;;;;;;9.98;9.50;;;18.00;99.90;;;;;;5033235;28;20029;-63
2021/06/16 03:07:48;;;;;;;10.25;9.70;;;18.00;99.90;;;;;;5033172;28;20044;-66
2021/06/16 03:10:18;;;;;;;10.13;9.73;;;18.10;99.90;;;;;;5033174;28;20112;-62
2021/06/16 03:12:49;;;;;;;10.15;9.50;;;18.10;99.90;;;;;;5033225;28;20076;-64
2021/06/16 03:15:16;;;;;;;;;;;18.00;99.90;;;;;;5032253;28;20022;-63
2021/06/16 03:17:46;;;;;;;10.93;10.40;;;18.00;99.90;;;;;;5033102;28;19912;-65
2021/06/16 03:20:16;;;;;;;11.05;10.50;;;17.90;99.90;;;;;;5032964;28;20497;-64
2021/06/16 03:22:45;;;;;;;11.10;10.60;;;17.90;99.90;;;;;;5033321;28;20058;-63
2021/06/16 03:25:14;;;;;;;11.23;10.60;;;18.00;99.90;;;;;;5033149;28;20036;-64
2021/06/16 03:27:43;;;;;;;11.00;10.50;;;18.00;99.90;;;;;;5032461;28;20421;-63
2021/06/16 03:30:10;;;;;;;10.35;9.60;;;18.10;99.90;;;;;;5032541;28;20046;-63
2021/06/16 03:32:38;;;;;;;9.88;9.38;;;18.00;99.90;;;;;;5032972;28;20530;-65
2021/06/16 03:35:07;;;;;;;10.30;9.70;;;18.10;99.90;;;;;;5032840;28;20087;-64
2021/06/16 03:37:36;;;;;;;9.40;9.00;;;18.00;99.90;;;;;;5032942;28;20100;-65
2021/06/16 03:40:06;;;;;;;9.52;8.85;;;17.90;99.90;;;;;;5033040;28;20486;-66
2021/06/16 03:42:36;;;;;;;9.87;9.37;;;17.90;99.90;;;;;;5032777;28;20025;-63
2021/06/16 03:45:07;;;;;;;8.93;8.43;;;18.00;99.90;;;;;;5032786;28;20036;-64
2021/06/16 03:47:39;;;;;;;9.27;8.77;;;18.00;99.90;;;;;;5032969;28;20030;-63
2021/06/16 03:50:08;;;;;;;9.45;8.88;;;18.10;99.90;;;;;;5031388;28;20025;-63
2021/06/16 03:52:38;;;;;;;8.95;8.50;;;18.10;99.90;;;;;;5032804;28;20505;-64
2021/06/16 03:55:06;;;;;;;8.27;7.88;;;18.10;99.90;;;;;;5033092;28;20074;-64
2021/06/16 03:57:34;;;;;;;7.63;7.30;;;18.00;99.90;;;;;;5032755;28;20108;-63
2021/06/16 04:00:03;;;;;;;8.30;7.80;;;18.00;99.90;;;;;;5032568;28;20097;-62
2021/06/16 04:02:31;;;;;;;9.02;8.52;;;18.00;99.90;;;;;;5032639;28;20032;-63
2021/06/16 04:05:07;;;;;;;8.43;8.10;;;18.10;99.90;;;;;;5047995;28;20394;-65
2021/06/16 04:07:36;;;;;;;8.68;8.38;;;18.20;99.90;;;;;;5032583;28;20111;-64
2021/06/16 04:10:06;;;;;;;8.10;7.80;;;18.20;99.90;;;;;;5032618;28;20033;-65
2021/06/16 04:12:33;;;;;;;7.97;7.57;;;18.10;99.90;;;;;;5032621;28;20017;-65
2021/06/16 04:15:03;;;;;;;8.30;8.00;;;18.20;99.90;;;;;;5032530;28;20022;-64
2021/06/16 04:17:30;;;;;;;8.45;8.00;;;18.30;99.90;;;;;;5032588;28;20017;-64
2021/06/16 04:19:58;;;;;;;8.80;8.40;;;18.20;99.90;;;;;;5032462;28;20057;-63
2021/06/16 04:22:25;;;;;;;8.77;8.40;;;18.30;99.90;;;;;;5032483;28;20382;-65
2021/06/16 04:24:52;;;;;;;8.80;8.40;;;18.50;99.90;;;;;;5032263;28;20056;-64
2021/06/16 04:27:20;;;;;;;8.93;8.52;;;18.50;99.90;;;;;;5032321;28;20439;-64
2021/06/16 04:29:47;;;;;;;8.93;8.50;;;18.60;99.90;;;;;;5032024;28;20065;-64
2021/06/16 04:32:15;;;;;;;8.90;8.40;;;18.40;99.90;;;;;;5032273;28;20312;-67
2021/06/16 04:34:42;;;;;;;9.15;8.65;;;18.40;99.90;;;;;;5032239;28;20017;-64
2021/06/16 04:37:10;;;;;;;8.73;8.35;;;18.40;99.90;;;;;;5032393;28;20018;-65
2021/06/16 04:39:37;;;;;;;8.05;7.55;;;18.40;99.90;;;;;;5033272;28;20037;-64
2021/06/16 04:42:06;;;;;;;9.65;9.00;;;18.40;99.90;;;;;;5035949;28;20032;-64
2021/06/16 04:44:34;;;;;;;9.10;8.70;;;18.40;99.90;;;;;;5035699;28;20029;-64
2021/06/16 04:47:04;;;;;;;9.52;9.00;;;18.40;99.90;;;;;;5035720;28;20478;-64
2021/06/16 04:49:33;;;;;;;9.90;9.40;;;18.40;99.90;;;;;;5035875;28;20374;-64
2021/06/16 04:52:01;;;;;;;9.80;9.35;;;18.40;99.90;;;;;;5035526;28;20075;-64
2021/06/16 04:54:28;;;;;;;9.73;9.23;;;18.40;99.90;;;;;;5035621;28;20084;-64
2021/06/16 04:57:03;;;;;;;8.93;8.55;;;18.30;99.90;;;;;;5035606;28;20017;-64
2021/06/16 04:59:31;;;;;;;9.13;8.75;;;18.10;99.90;;;;;;5035609;28;20462;-65
2021/06/16 05:01:59;;;;;;;10.30;9.77;;;17.90;99.90;;;;;;5035494;28;20033;-65
2021/06/16 05:04:28;;;;;;;9.73;9.13;;;17.80;99.90;;;;;;5035401;28;20025;-65
2021/06/16 05:06:59;;;;;;;9.60;9.10;;;17.70;99.90;;;;;;5035451;28;20021;-65
2021/06/16 05:09:25;;;;;;;;;;;17.60;99.90;;;;;;5035884;28;20033;-64
2021/06/16 05:11:53;;;;;;;9.35;8.95;;;17.50;99.90;;;;;;5035272;28;19932;-64
2021/06/16 05:14:20;;;;;;;9.85;9.43;;;17.50;99.90;;;;;;5035207;28;20056;-64
2021/06/16 05:16:48;;;;;;;10.60;10.10;;;17.50;99.90;;;;;;5035147;28;20025;-64
2021/06/16 05:19:16;;;;;;;10.50;10.00;;;17.40;99.90;;;;;;5035071;28;20044;-63
2021/06/16 05:21:48;;;;;;;10.68;10.20;;;17.40;99.90;;;;;;5035158;28;20151;-64
2021/06/16 05:24:16;;;;;;;12.20;11.70;;;17.30;99.90;;;;;;5035616;28;20087;-64
2021/06/16 05:26:44;;;;;;;12.23;11.63;;;17.30;99.90;;;;;;5035125;28;20032;-64
2021/06/16 05:29:12;;;;;;;11.00;10.50;;;17.30;99.90;;;;;;5034877;28;20045;-62
2021/06/16 05:31:39;;;;;;;11.68;11.23;;;17.30;99.90;;;;;;5034772;28;20360;-62
2021/06/16 05:34:07;;;;;;;10.60;10.10;;;17.20;99.90;;;;;;5034812;28;20097;-62
2021/06/16 05:36:36;;;;;;;11.80;11.30;;;17.20;99.90;;;;;;5035084;28;20022;-62
2021/06/16 05:39:05;;;;;;;13.30;12.50;;;17.10;99.90;;;;;;5034783;28;20068;-63
2021/06/16 05:41:32;;;;;;;12.40;11.70;;;17.00;99.90;;;;;;5034725;28;20022;-62
2021/06/16 05:43:59;;;;;;;13.60;12.90;;;17.00;99.90;;;;;;5034728;28;20045;-63
2021/06/16 05:46:27;;;;;;;13.40;12.80;;;17.00;99.90;;;;;;5034786;28;20029;-63
2021/06/16 05:48:54;;;;;;;14.80;13.95;;;17.00;99.90;;;;;;5034703;28;20025;-63
2021/06/16 05:51:22;;;;;;;14.68;13.93;;;17.10;99.90;;;;;;5034390;28;20061;-63
2021/06/16 05:53:49;;;;;;;13.77;13.18;;;17.20;99.90;;;;;;5034601;28;20025;-63
2021/06/16 05:56:16;;;;;;;14.07;13.25;;;17.30;99.90;;;;;;5034571;28;20151;-64
2021/06/16 05:58:44;;;;;;;12.85;12.02;;;17.30;99.90;;;;;;5034421;28;20022;-64
2021/06/16 06:01:11;;;;;;;14.00;13.30;;;17.30;99.90;;;;;;5049697;28;20048;-64
2021/06/16 06:03:41;;;;;;;14.23;13.43;;;17.10;99.90;;;;;;5034407;28;20026;-64
2021/06/16 06:06:10;;;;;;;14.40;13.60;;;16.90;99.90;;;;;;5034346;28;20053;-64
2021/06/16 06:08:37;;;;;;;14.52;13.82;;;16.60;99.90;;;;;;5034153;28;20035;-64
2021/06/16 06:11:05;;;;;;;14.25;13.55;;;16.40;99.90;;;;;;5033918;28;20026;-64
2021/06/16 06:13:32;;;;;;;14.43;13.75;;;16.30;99.90;;;;;;5034314;28;20407;-65
2021/06/16 06:15:59;;;;;;;16.40;15.50;;;16.10;99.90;;;;;;5034068;28;20027;-64
2021/06/16 06:18:27;;;;;;;16.88;16.17;;;16.00;99.90;;;;;;5033831;28;20045;-65
2021/06/16 06:20:54;;;;;;;17.08;16.30;;;15.80;99.90;;;;;;5032646;28;20026;-64
2021/06/16 06:23:21;;;;;;;19.40;18.40;;;15.70;99.90;;;;;;5033882;28;20021;-64
2021/06/16 06:25:49;;;;;;;20.60;19.40;;;15.70;99.90;;;;;;5033840;28;20025;-64
2021/06/16 06:28:16;;;;;;;23.05;20.95;;;15.60;99.90;;;;;;5033820;28;20382;-65
2021/06/16 06:30:44;;;;;;;22.08;21.05;;;15.60;99.90;;;;;;5033710;28;20041;-64
2021/06/16 06:33:11;;;;;;;22.60;21.50;;;15.60;99.90;;;;;;5033601;28;20037;-64
2021/06/16 06:35:38;;;;;;;23.63;22.52;;;15.60;99.90;;;;;;5033654;28;20497;-64
2021/06/16 06:38:06;;;;;;;24.02;22.92;;;15.60;99.90;;;;;;5033651;28;20033;-64
2021/06/16 06:40:34;;;;;;;24.80;23.60;;;15.60;99.90;;;;;;5033366;28;20033;-64
2021/06/16 06:43:02;;;;;;;24.33;23.05;;;15.50;99.90;;;;;;5033405;28;20079;-64
2021/06/16 06:45:30;;;;;;;27.10;25.60;;;15.40;99.90;;;;;;5033472;28;20052;-64
2021/06/16 06:47:57;;;;;;;26.70;25.30;;;15.40;99.90;;;;;;5033201;28;20033;-64
2021/06/16 06:50:24;;;;;;;26.63;25.30;;;15.30;99.90;;;;;;5033226;28;20385;-65
2021/06/16 06:52:52;;;;;;;28.27;26.70;;;15.20;99.90;;;;;;5033638;28;20029;-65
2021/06/16 06:55:19;;;;;;;28.42;27.00;;;15.20;99.90;;;;;;5033159;28;20068;-65
2021/06/16 06:57:47;;;;;;;29.58;28.00;;;15.20;99.90;;;;;;5033171;28;20026;-64
2021/06/16 07:00:15;;;;;;;31.10;29.40;;;15.10;99.90;;;;;;5033081;28;20425;-65
2021/06/16 07:02:43;;;;;;;31.35;29.45;;;15.10;99.90;;;;;;5032589;28;20017;-65
2021/06/16 07:05:11;;;;;;;31.27;29.77;;;15.00;99.90;;;;;;5033107;28;20033;-65
2021/06/16 07:07:39;;;;;;;32.28;30.70;;;15.00;99.90;;;;;;5033004;28;20414;-64
2021/06/16 07:10:07;;;;;;;34.85;32.72;;;15.10;99.90;;;;;;5032926;28;20018;-64
2021/06/16 07:12:35;;;;;;;32.65;30.95;;;15.20;99.90;;;;;;5033208;28;20321;-65
2021/06/16 07:15:03;;;;;;;31.75;30.00;;;15.40;99.90;;;;;;5032838;28;20101;-64
2021/06/16 07:17:31;;;;;;;33.47;31.42;;;15.30;99.90;;;;;;5032820;28;20427;-64
2021/06/16 07:19:58;;;;;;;35.85;34.03;;;15.20;99.90;;;;;;5032635;28;20494;-64
2021/06/16 07:22:26;;;;;;;36.00;34.20;;;15.00;99.90;;;;;;5032716;28;20504;-65
2021/06/16 07:24:53;;;;;;;37.42;35.72;;;14.80;99.90;;;;;;5032724;28;20083;-63
2021/06/16 07:27:20;;;;;;;33.40;31.63;;;14.70;99.90;;;;;;5032879;28;20026;-64
2021/06/16 07:29:48;;;;;;;35.75;33.85;;;14.60;99.90;;;;;;5064557;28;20522;-66
2021/06/16 07:32:17;;;;;;;36.33;34.25;;;14.50;99.90;;;;;;5032823;28;20394;-67
2021/06/16 07:34:46;;;;;;;38.90;36.90;;;14.40;99.90;;;;;;5031666;28;20469;-67
2021/06/16 07:37:13;;;;;;;40.40;38.33;;;14.40;99.90;;;;;;5032781;28;20398;-67
2021/06/16 07:39:41;;;;;;;40.17;38.00;;;14.30;99.90;;;;;;5047939;28;20096;-67
2021/06/16 07:42:08;;;;;;;42.08;39.88;;;14.30;99.90;;;;;;5032864;28;20021;-68
2021/06/16 07:44:35;;;;;;;40.78;38.47;;;14.30;99.90;;;;;;5032820;28;20024;-68
2021/06/16 07:47:03;;;;;;;42.20;39.60;;;14.30;99.90;;;;;;5032742;28;20017;-68
2021/06/16 07:49:30;;;;;;;44.97;42.50;;;14.30;99.90;;;;;;5032825;28;20057;-67
2021/06/16 07:51:58;;;;;;;44.42;41.92;;;14.30;99.90;;;;;;5032873;28;20026;-68
2021/06/16 07:54:25;;;;;;;44.28;41.08;;;14.30;99.90;;;;;;5032766;28;20032;-68
2021/06/16 07:56:53;;;;;;;42.40;39.90;;;14.40;99.90;;;;;;5032747;28;20032;-67
2021/06/16 07:59:20;;;;;;;42.03;39.58;;;14.40;99.90;;;;;;5032562;28;20446;-66
2021/06/16 08:01:48;;;;;;;40.35;38.05;;;14.40;99.90;;;;;;5032629;28;20026;-65
2021/06/16 08:04:16;;;;;;;38.40;36.08;;;14.50;99.90;;;;;;5032558;28;20026;-65
2021/06/16 08:06:43;;;;;;;39.10;36.80;;;14.60;99.90;;;;;;5032527;28;20030;-65
2021/06/16 08:09:10;;;;;;;40.58;38.15;;;14.70;99.90;;;;;;5032647;28;20420;-68
2021/06/16 08:11:38;;;;;;;40.42;37.97;;;14.70;99.90;;;;;;5032424;28;20116;-68
2021/06/16 08:14:06;;;;;;;38.58;36.15;;;14.80;99.90;;;;;;5034272;28;20021;-66
2021/06/16 08:16:33;;;;;;;39.45;37.05;;;14.80;99.90;;;;;;5036245;28;20104;-66
2021/06/16 08:19:00;;;;;;;38.33;36.03;;;14.80;99.90;;;;;;5036201;28;20028;-66
2021/06/16 08:21:28;;;;;;;37.10;34.67;;;14.90;99.90;;;;;;5036319;28;20532;-66
2021/06/16 08:23:55;;;;;;;37.15;35.15;;;14.90;99.90;;;;;;5036193;28;20028;-65
2021/06/16 08:26:22;;;;;;;36.90;34.70;;;14.80;99.90;;;;;;5036192;28;20045;-65
2021/06/16 08:28:50;;;;;;;36.40;34.30;;;14.80;99.90;;;;;;5034437;28;20119;-64
2021/06/16 08:31:17;;;;;;;36.10;34.00;;;14.80;99.90;;;;;;5035903;28;20502;-64
2021/06/16 08:33:45;;;;;;;35.63;33.35;;;14.90;99.90;;;;;;5035925;28;20053;-62
2021/06/16 08:36:12;;;;;;;34.28;32.10;;;14.90;99.90;;;;;;5035796;28;20032;-63
2021/06/16 08:38:39;;;;;;;30.92;28.85;;;14.90;99.90;;;;;;5051544;28;20029;-64
2021/06/16 08:41:08;;;;;;;31.45;29.55;;;14.90;99.90;;;;;;5035805;28;20506;-65
2021/06/16 08:43:41;;;;;;;33.25;31.23;;;15.00;99.90;;;;;;5036003;28;20025;-66
2021/06/16 08:46:13;;;;;;;32.42;30.63;;;14.90;99.90;;;;;;5034456;28;20029;-66
2021/06/16 08:48:41;;;;;;;32.92;30.92;;;14.90;99.90;;;;;;5034439;28;20493;-66
2021/06/16 08:51:15;;;;;;;32.70;30.80;;;14.90;99.90;;;;;;5035628;28;20432;-67
2021/06/16 08:53:48;;;;;;;30.52;28.77;;;14.90;99.90;;;;;;5035722;28;20304;-66
2021/06/16 08:56:16;;;;;;;31.92;30.00;;;15.00;99.90;;;;;;5035643;28;20025;-65
2021/06/16 08:58:43;;;;;;;32.70;30.70;;;15.10;99.90;;;;;;5035457;28;20071;-65
2021/06/16 09:01:12;;;;;;;32.60;30.70;;;15.10;99.90;;;;;;5035392;28;20504;-67
2021/06/16 09:03:40;;;;;;;31.83;29.83;;;15.10;99.90;;;;;;5035427;28;20022;-66
2021/06/16 09:06:12;;;;;;;30.35;28.75;;;15.20;99.90;;;;;;5035437;28;20052;-66
2021/06/16 09:09:01;;;;;;;29.73;28.13;;;15.10;99.90;;;;;;5035328;28;20031;-66
2021/06/16 09:11:31;;;;;;;30.33;28.48;;;15.10;99.90;;;;;;5035301;28;20044;-67
2021/06/16 09:14:12;;;;;;;30.83;28.92;;;15.00;99.90;;;;;;5035226;28;20017;-67
2021/06/16 09:16:39;;;;;;;;;;;15.00;99.90;;;;;;5035746;28;20108;-67
2021/06/16 09:19:18;;;;;;;33.25;31.33;;;15.00;99.90;;;;;;5035388;28;19912;-67
2021/06/16 09:21:48;;;;;;;32.88;30.77;;;15.00;99.90;;;;;;5035454;28;20021;-66
2021/06/16 09:24:17;;;;;;;33.20;31.30;;;14.90;99.90;;;;;;5035311;28;20021;-66
2021/06/16 09:26:45;;;;;;;32.85;30.77;;;15.00;99.90;;;;;;5034222;28;20068;-66
2021/06/16 09:29:13;;;;;;;31.80;29.90;;;14.90;99.90;;;;;;5034981;28;20045;-67
2021/06/16 09:31:45;;;;;;;34.08;32.17;;;14.90;99.90;;;;;;5035276;28;20470;-67
2021/06/16 09:34:16;;;;;;;34.15;32.10;;;14.80;99.90;;;;;;5034972;28;20386;-66
2021/06/16 09:36:51;;;;;;;34.67;32.50;;;14.70;99.90;;;;;;5034859;28;20359;-67
2021/06/16 09:39:36;;;;;;;37.00;34.63;;;14.70;99.90;;;;;;5034957;28;20029;-67
2021/06/16 09:42:13;;;;;;;34.75;32.45;;;14.60;99.90;;;;;;5034850;28;20025;-67
2021/06/16 09:44:50;;;;;;;34.83;32.28;;;14.50;99.90;;;;;;5034635;28;20105;-67
2021/06/16 09:47:26;;;;;;;37.50;35.08;;;14.40;99.90;;;;;;5034819;28;20083;-65
2021/06/16 09:49:58;;;;;;;37.10;34.60;;;14.40;99.90;;;;;;5034483;28;20028;-66
2021/06/16 09:52:32;;;;;;;36.75;34.45;;;14.40;99.90;;;;;;5034615;28;20025;-66
2021/06/16 09:55:01;;;;;;;38.38;35.78;;;14.40;99.90;;;;;;5034533;28;20025;-66
2021/06/16 09:57:29;;;;;;;39.78;37.28;;;14.30;99.90;;;;;;5034209;28;20021;-65
2021/06/16 10:00:02;;;;;;;39.83;37.25;;;14.30;99.90;;;;;;5034140;28;20099;-67
2021/06/16 10:02:31;;;;;;;40.67;38.25;;;14.40;99.90;;;;;;5032815;28;20025;-66
2021/06/16 10:05:02;;;;;;;39.33;37.03;;;14.30;99.90;;;;;;5033996;28;20025;-68
2021/06/16 10:07:31;;;;;;;42.10;39.60;;;14.30;99.90;;;;;;5034230;28;20017;-69
2021/06/16 10:10:11;;;;;;;43.92;41.35;;;14.20;99.90;;;;;;5033921;28;20033;-69
2021/06/16 10:12:42;;;;;;;43.80;41.33;;;14.20;99.90;;;;;;5034264;28;20013;-67
2021/06/16 10:15:15;;;;;;;44.03;41.42;;;14.20;99.90;;;;;;5034150;28;20017;-68
2021/06/16 10:17:43;;;;;;;42.67;40.17;;;14.00;99.90;;;;;;5033961;28;20026;-69
2021/06/16 10:20:13;;;;;;;43.35;40.67;;;13.90;99.90;;;;;;5033822;28;20022;-69
2021/06/16 10:22:40;;;;;;;42.88;40.22;;;13.70;99.90;;;;;;5033749;28;20480;-68
2021/06/16 10:25:08;;;;;;;42.00;39.40;;;13.60;99.90;;;;;;5033756;28;20061;-69
2021/06/16 10:27:37;;;;;;;42.17;39.63;;;13.50;99.90;;;;;;5033733;28;20470;-69
2021/06/16 10:30:15;;;;;;;43.80;41.05;;;13.40;99.90;;;;;;5033525;28;20121;-69
2021/06/16 10:32:46;;;;;;;44.97;42.38;;;13.30;99.90;;;;;;5033736;28;20385;-69
2021/06/16 10:35:24;;;;;;;45.85;43.15;;;13.30;99.90;;;;;;5033888;28;20473;-68
2021/06/16 10:38:02;;;;;;;47.00;44.30;;;13.30;99.90;;;;;;5032628;28;20030;-68
2021/06/16 10:40:30;;;;;;;46.33;43.53;;;13.30;99.90;;;;;;5032219;28;20080;-69
2021/06/16 10:43:04;;;;;;;45.45;42.75;;;13.40;99.90;;;;;;5033413;28;20026;-69
2021/06/16 10:45:41;;;;;;;43.75;41.00;;;13.40;99.90;;;;;;5032214;28;20549;-69
2021/06/16 10:48:11;;;;;;;41.70;38.95;;;13.40;99.90;;;;;;5033322;28;20021;-67
2021/06/16 10:50:47;;;;;;;41.53;38.77;;;13.50;99.90;;;;;;5033364;28;20108;-68
2021/06/16 10:53:17;;;;;;;42.08;39.30;;;13.60;99.90;;;;;;5033400;28;20036;-67
2021/06/16 10:56:07;;;;;;;41.90;39.38;;;13.60;99.90;;;;;;5033294;28;20022;-68
2021/06/16 10:58:44;;;;;;;43.63;40.88;;;13.60;99.90;;;;;;5030219;28;20124;-67
2021/06/16 11:01:16;;;;;;;42.85;40.15;;;13.70;99.90;;;;;;5033366;28;20103;-67
2021/06/16 11:03:53;;;;;;;41.90;38.90;;;13.70;99.90;;;;;;5033128;28;20086;-68
2021/06/16 11:06:36;;;;;;;42.25;39.45;;;13.70;99.90;;;;;;5033171;28;20025;-68
2021/06/16 11:09:08;;;;;;;42.60;39.78;;;13.80;99.90;;;;;;5033065;28;20025;-66
2021/06/16 11:11:53;;;;;;;42.22;39.53;;;13.80;99.90;;;;;;5033291;28;20425;-65
2021/06/16 11:14:36;;;;;;;42.30;39.60;;;13.80;99.90;;;;;;5032855;28;20099;-65
2021/06/16 11:17:07;;;;;;;43.63;40.85;;;13.90;99.90;;;;;;5033151;28;20021;-65
2021/06/16 11:19:39;;;;;;;42.78;40.08;;;14.00;99.90;;;;;;5032887;28;20021;-66
2021/06/16 11:22:13;;;;;;;42.83;40.22;;;14.00;99.90;;;;;;5032733;28;20033;-65
2021/06/16 11:25:09;;;;;;;43.17;40.30;;;14.10;99.90;;;;;;5032807;28;20482;-66
2021/06/16 11:27:52;;;;;;;43.30;40.67;;;14.10;99.90;;;;;;5032858;28;20100;-65
2021/06/16 11:30:38;;;;;;;45.50;42.63;;;14.10;99.90;;;;;;5032727;28;20075;-66
2021/06/16 11:33:17;;;;;;;45.85;42.85;;;14.10;99.90;;;;;;5032720;28;20093;-66
2021/06/16 11:36:04;;;;;;;46.58;43.67;;;14.10;99.90;;;;;;5032923;28;20026;-65
2021/06/16 11:38:36;;;;;;;46.95;44.03;;;14.10;99.90;;;;;;5032390;28;20547;-65
2021/06/16 11:41:24;;;;;;;45.80;42.45;;;14.00;99.90;;;;;;5032720;28;20018;-65
2021/06/16 11:44:07;;;;;;;44.38;41.35;;;14.00;99.90;;;;;;5032613;28;20025;-66
2021/06/16 11:46:39;;;;;;;46.83;43.65;;;14.00;99.90;;;;;;5031380;28;20025;-65
2021/06/16 11:49:17;;;;;;;46.45;43.55;;;14.00;99.90;;;;;;5034653;28;20040;-65
2021/06/16 11:51:53;;;;;;;45.28;42.17;;;14.10;99.90;;;;;;5036633;28;20056;-65
2021/06/16 11:54:24;;;;;;;48.50;45.38;;;14.10;99.90;;;;;;5036771;28;20067;-65
2021/06/16 11:57:14;;;;;;;48.33;44.78;;;14.20;99.90;;;;;;5036683;28;20021;-65
2021/06/16 11:59:49;;;;;;;49.05;45.70;;;14.20;99.90;;;;;;5036893;28;20026;-66
2021/06/16 12:02:29;;;;;;;48.03;44.72;;;14.20;99.90;;;;;;5036674;28;20433;-65
2021/06/16 12:05:12;;;;;;;47.35;43.92;;;14.30;99.90;;;;;;5036639;28;20017;-66
2021/06/16 12:07:47;;;;;;;48.38;45.00;;;14.30;99.90;;;;;;5036579;28;20030;-65
2021/06/16 12:10:21;;;;;;;48.63;45.05;;;14.40;99.90;;;;;;5036387;28;20387;-66
2021/06/16 12:12:54;;;;;;;49.50;46.33;;;14.40;99.90;;;;;;5036477;28;20068;-66
2021/06/16 12:15:33;;;;;;;51.78;48.22;;;14.50;99.90;;;;;;5036434;28;20029;-66
2021/06/16 12:18:09;;;;;;;50.40;46.80;;;14.60;99.90;;;;;;5036440;28;20017;-66
2021/06/16 12:20:41;;;;;;;49.45;46.08;;;14.60;99.90;;;;;;5068252;28;20406;-65
2021/06/16 12:23:25;;;;;;;51.75;47.97;;;14.60;99.90;;;;;;5036359;28;20032;-65
2021/06/16 12:26:02;;;;;;;48.70;45.30;;;14.60;99.90;;;;;;5036234;28;20026;-65
2021/06/16 12:28:30;;;;;;;48.47;44.97;;;14.60;99.90;;;;;;5036182;28;20043;-65
2021/06/16 12:30:58;;;;;;;50.05;46.42;;;14.80;99.90;;;;;;5034688;28;20414;-65
2021/06/16 12:36:25;;;;;;;51.33;47.95;;;14.50;99.90;;;;;;5035976;28;20029;-66
2021/06/16 12:38:57;;;;;;;54.88;51.03;;;14.20;99.90;;;;;;5035997;28;20018;-66
2021/06/16 12:41:24;;;;;;;54.35;50.83;;;14.10;99.90;;;;;;5035903;28;20021;-65
2021/06/16 12:43:53;;;;;;;55.42;51.83;;;14.00;99.90;;;;;;5035985;28;20389;-64
2021/06/16 12:46:20;;;;;;;55.33;51.38;;;13.90;99.90;;;;;;5035863;28;20100;-63
2021/06/16 12:48:48;;;;;;;56.20;52.42;;;13.70;99.90;;;;;;5035833;28;20027;-63
2021/06/16 12:51:15;;;;;;;56.22;52.42;;;13.50;99.90;;;;;;5035705;28;20049;-63